Flag for United Kingdom

Past Weather in Sutton Coldfield, England, United Kingdom — Yesterday and Last 2 Weeks

Currently: 48 °F. Sunny. (Weather station: Birmingham / Airport, United Kingdom). See more current weather

Past Weather in Sutton Coldfield — Graph

°F

Sutton Coldfield Temperature Yesterday

Maximum temperature yesterday: 46 °F (at 2:20 pm)
Minimum temperature yesterday: 21 °F (at 8:20 am)
Average temperature yesterday: 33 °F

High & Low Weather Summary for the Past Weeks

 TemperatureHumidityPressure
High55 °F (Feb 3, 12:20 pm)100% (Jan 24, 4:50 am)30.92 "Hg (Jan 24, 4:50 am)
Low21 °F (Feb 6, 8:20 am)50% (Jan 31, 1:20 pm)30.09 "Hg (Jan 29, 11:20 pm)
Average42 °F80%30.47 "Hg
* Reported Jan 23 2:20 pm — Feb 7 2:20 pm, Sutton Coldfield. Weather by CustomWeather, © 2023

Note: Actual official high and low records may vary slightly from our data, if they occured in-between our weather recording intervals... More about our weather records

Sutton Coldfield Weather History for the Previous 24 Hours

Scroll right to see more
 ConditionsComfort  
Time TempWeatherWind HumidityBarometerVisibility
2:20 pm
Tue, Feb 7
48 °FSunny.1 mph62%30.63 "Hg10 mi
1:50 pm48 °FSunny.5 mph62%30.63 "Hg10 mi
1:20 pm48 °FPassing clouds.5 mph66%30.66 "HgN/A
12:50 pm46 °FPassing clouds.3 mph71%30.66 "HgN/A
12:20 pm46 °FPassing clouds.2 mph71%30.66 "HgN/A
11:50 am45 °FPassing clouds.3 mph76%30.66 "HgN/A
11:20 am43 °FClear.1 mph81%30.69 "Hg6 mi
10:50 am41 °FClear.2 mph87%30.69 "Hg6 mi
10:20 am39 °FClear.2 mph87%30.66 "Hg6 mi
9:50 am36 °FClear.2 mph93%30.66 "Hg6 mi
9:20 am30 °FSunny.1 mph100%30.69 "Hg10 mi
8:20 am25 °FClear.1 mph100%30.66 "HgN/A
7:50 am25 °FClear.1 mph93%30.66 "Hg6 mi
7:20 am23 °FClear.3 mph100%30.66 "Hg5 mi
6:50 am25 °FClear.2 mph93%30.66 "Hg5 mi
6:20 am23 °FClear.5 mph100%30.66 "Hg6 mi
5:50 am25 °FClear.5 mph93%30.66 "Hg6 mi
5:20 am25 °FClear.5 mph93%30.66 "Hg10 mi
4:50 am27 °FPassing clouds.5 mph93%30.66 "HgN/A
4:20 am25 °FClear.5 mph93%30.66 "Hg10 mi
3:20 am27 °FClear.1 mph93%30.66 "Hg10 mi
2:50 am28 °FClear.2 mph93%30.66 "Hg10 mi
2:20 am27 °FClear.1 mph100%30.66 "Hg5 mi
1:50 am28 °FClear.1 mph93%30.66 "Hg10 mi
1:20 am27 °FClear.5 mph93%30.66 "Hg10 mi
12:50 am30 °FClear.1 mph93%30.66 "Hg10 mi
11:20 pm
Mon, Feb 6
30 °FClear.5 mph93%30.66 "Hg10 mi
10:50 pm30 °FClear.6 mph93%30.66 "Hg6 mi
10:20 pm30 °FClear.5 mph93%30.69 "Hg10 mi
9:50 pm30 °FClear.5 mph93%30.69 "Hg10 mi
9:20 pm30 °FClear.3 mph93%30.66 "Hg10 mi
8:50 pm30 °FClear.1 mph93%30.66 "Hg10 mi
8:20 pm32 °FClear.5 mph93%30.66 "Hg10 mi
7:50 pm36 °FClear.5 mph87%30.69 "Hg10 mi
7:20 pm36 °FClear.2 mph81%30.69 "Hg10 mi
5:50 pm39 °FClear.1 mph81%30.69 "Hg10 mi
5:20 pm41 °FClear.2 mph76%30.69 "Hg10 mi
4:50 pm43 °FSunny.1 mph71%30.69 "Hg10 mi
4:20 pm45 °FSunny.5 mph66%30.69 "Hg10 mi
3:50 pm46 °FPassing clouds.6 mph62%30.69 "HgN/A
3:20 pm46 °FPassing clouds.5 mph62%30.69 "HgN/A
Weather by CustomWeather, © 2023

See weather overview